sensor_id;sensor_type;location;lat;lon;timestamp;P1;durP1;ratioP1;P2;durP2;ratioP2
25824;SDS011;13658;44.534;18.694;2023-02-01T00:01:40;323.60;;;145.45;;
25824;SDS011;13658;44.534;18.694;2023-02-01T00:04:05;314.92;;;145.13;;
25824;SDS011;13658;44.534;18.694;2023-02-01T00:06:32;299.45;;;139.75;;
25824;SDS011;13658;44.534;18.694;2023-02-01T00:08:57;286.90;;;134.82;;
25824;SDS011;13658;44.534;18.694;2023-02-01T00:11:24;249.68;;;119.68;;
25824;SDS011;13658;44.534;18.694;2023-02-01T00:13:50;248.95;;;121.68;;
25824;SDS011;13658;44.534;18.694;2023-02-01T00:16:17;248.18;;;116.38;;
25824;SDS011;13658;44.534;18.694;2023-02-01T00:18:46;236.55;;;113.40;;
25824;SDS011;13658;44.534;18.694;2023-02-01T00:21:14;235.05;;;113.15;;
25824;SDS011;13658;44.534;18.694;2023-02-01T00:23:41;237.20;;;111.63;;
25824;SDS011;13658;44.534;18.694;2023-02-01T00:26:11;245.82;;;116.95;;
25824;SDS011;13658;44.534;18.694;2023-02-01T00:28:41;231.00;;;111.57;;
25824;SDS011;13658;44.534;18.694;2023-02-01T00:31:07;208.57;;;101.53;;
25824;SDS011;13658;44.534;18.694;2023-02-01T00:33:33;200.43;;;96.47;;
25824;SDS011;13658;44.534;18.694;2023-02-01T00:36:00;175.40;;;86.25;;
25824;SDS011;13658;44.534;18.694;2023-02-01T00:38:28;178.38;;;83.18;;
25824;SDS011;13658;44.534;18.694;2023-02-01T00:41:01;170.88;;;81.90;;
25824;SDS011;13658;44.534;18.694;2023-02-01T00:43:30;184.07;;;87.00;;
25824;SDS011;13658;44.534;18.694;2023-02-01T00:45:57;154.70;;;70.97;;
25824;SDS011;13658;44.534;18.694;2023-02-01T00:48:23;160.75;;;75.10;;
25824;SDS011;13658;44.534;18.694;2023-02-01T00:50:50;190.18;;;88.47;;
25824;SDS011;13658;44.534;18.694;2023-02-01T00:53:16;216.43;;;101.65;;
25824;SDS011;13658;44.534;18.694;2023-02-01T00:55:48;222.40;;;101.35;;
25824;SDS011;13658;44.534;18.694;2023-02-01T00:58:14;231.07;;;104.03;;
25824;SDS011;13658;44.534;18.694;2023-02-01T01:00:40;230.25;;;105.70;;
25824;SDS011;13658;44.534;18.694;2023-02-01T01:03:06;208.38;;;99.65;;
25824;SDS011;13658;44.534;18.694;2023-02-01T01:05:43;189.80;;;90.60;;
25824;SDS011;13658;44.534;18.694;2023-02-01T01:08:13;194.48;;;93.68;;
25824;SDS011;13658;44.534;18.694;2023-02-01T01:10:40;190.20;;;90.32;;
25824;SDS011;13658;44.534;18.694;2023-02-01T01:13:08;194.45;;;88.93;;
25824;SDS011;13658;44.534;18.694;2023-02-01T01:15:37;197.77;;;93.18;;
25824;SDS011;13658;44.534;18.694;2023-02-01T01:18:05;193.00;;;90.55;;
25824;SDS011;13658;44.534;18.694;2023-02-01T01:20:31;215.10;;;102.20;;
25824;SDS011;13658;44.534;18.694;2023-02-01T01:22:59;204.00;;;102.05;;
25824;SDS011;13658;44.534;18.694;2023-02-01T01:25:25;204.15;;;94.25;;
25824;SDS011;13658;44.534;18.694;2023-02-01T01:27:52;186.80;;;88.18;;
25824;SDS011;13658;44.534;18.694;2023-02-01T01:30:17;186.95;;;87.50;;
25824;SDS011;13658;44.534;18.694;2023-02-01T01:32:44;173.45;;;82.47;;
25824;SDS011;13658;44.534;18.694;2023-02-01T01:35:10;151.50;;;71.88;;
25824;SDS011;13658;44.534;18.694;2023-02-01T01:37:36;176.32;;;83.15;;
25824;SDS011;13658;44.534;18.694;2023-02-01T01:40:03;194.80;;;88.70;;
25824;SDS011;13658;44.534;18.694;2023-02-01T01:42:30;183.88;;;86.90;;
25824;SDS011;13658;44.534;18.694;2023-02-01T01:45:03;186.52;;;89.15;;
25824;SDS011;13658;44.534;18.694;2023-02-01T01:47:41;205.23;;;93.97;;
25824;SDS011;13658;44.534;18.694;2023-02-01T01:52:49;189.30;;;84.90;;
25824;SDS011;13658;44.534;18.694;2023-02-01T01:55:18;193.30;;;91.75;;
25824;SDS011;13658;44.534;18.694;2023-02-01T01:57:50;189.02;;;87.93;;
25824;SDS011;13658;44.534;18.694;2023-02-01T02:00:43;196.18;;;88.18;;
25824;SDS011;13658;44.534;18.694;2023-02-01T02:03:21;174.15;;;77.55;;
25824;SDS011;13658;44.534;18.694;2023-02-01T02:05:54;145.82;;;70.80;;
25824;SDS011;13658;44.534;18.694;2023-02-01T02:08:23;174.43;;;81.78;;
25824;SDS011;13658;44.534;18.694;2023-02-01T02:10:51;173.25;;;81.85;;
25824;SDS011;13658;44.534;18.694;2023-02-01T02:13:25;181.05;;;86.28;;
25824;SDS011;13658;44.534;18.694;2023-02-01T02:18:32;166.32;;;79.65;;
25824;SDS011;13658;44.534;18.694;2023-02-01T02:32:16;159.25;;;77.95;;
25824;SDS011;13658;44.534;18.694;2023-02-01T02:34:57;168.77;;;83.35;;
25824;SDS011;13658;44.534;18.694;2023-02-01T02:37:36;174.32;;;85.65;;
25824;SDS011;13658;44.534;18.694;2023-02-01T02:40:05;155.48;;;75.60;;
25824;SDS011;13658;44.534;18.694;2023-02-01T02:42:44;144.85;;;69.28;;
25824;SDS011;13658;44.534;18.694;2023-02-01T02:45:43;143.43;;;70.30;;
25824;SDS011;13658;44.534;18.694;2023-02-01T02:48:47;110.00;;;51.03;;
25824;SDS011;13658;44.534;18.694;2023-02-01T02:51:24;124.50;;;64.20;;
25824;SDS011;13658;44.534;18.694;2023-02-01T02:54:15;128.85;;;63.30;;
25824;SDS011;13658;44.534;18.694;2023-02-01T02:57:07;134.65;;;64.80;;
25824;SDS011;13658;44.534;18.694;2023-02-01T02:59:56;133.02;;;63.03;;
25824;SDS011;13658;44.534;18.694;2023-02-01T03:02:44;140.77;;;64.72;;
25824;SDS011;13658;44.534;18.694;2023-02-01T03:05:39;137.27;;;64.07;;
25824;SDS011;13658;44.534;18.694;2023-02-01T03:08:13;137.18;;;62.10;;
25824;SDS011;13658;44.534;18.694;2023-02-01T03:11:10;119.78;;;58.60;;
25824;SDS011;13658;44.534;18.694;2023-02-01T03:21:50;132.95;;;65.63;;
25824;SDS011;13658;44.534;18.694;2023-02-01T03:30:05;129.30;;;61.42;;
25824;SDS011;13658;44.534;18.694;2023-02-01T03:32:35;129.50;;;64.55;;
25824;SDS011;13658;44.534;18.694;2023-02-01T03:38:23;115.82;;;58.17;;
25824;SDS011;13658;44.534;18.694;2023-02-01T03:40:58;120.75;;;61.03;;
25824;SDS011;13658;44.534;18.694;2023-02-01T03:46:28;85.45;;;42.60;;
25824;SDS011;13658;44.534;18.694;2023-02-01T03:49:03;94.03;;;48.67;;
25824;SDS011;13658;44.534;18.694;2023-02-01T03:51:34;98.13;;;49.42;;
25824;SDS011;13658;44.534;18.694;2023-02-01T03:54:03;98.50;;;48.35;;
25824;SDS011;13658;44.534;18.694;2023-02-01T03:56:33;96.55;;;49.08;;
25824;SDS011;13658;44.534;18.694;2023-02-01T03:59:03;111.55;;;52.67;;
25824;SDS011;13658;44.534;18.694;2023-02-01T04:01:33;105.05;;;50.72;;
25824;SDS011;13658;44.534;18.694;2023-02-01T04:04:00;114.05;;;54.28;;
25824;SDS011;13658;44.534;18.694;2023-02-01T04:06:26;122.35;;;58.88;;
25824;SDS011;13658;44.534;18.694;2023-02-01T04:08:56;117.43;;;55.97;;
25824;SDS011;13658;44.534;18.694;2023-02-01T04:11:22;109.88;;;54.10;;
25824;SDS011;13658;44.534;18.694;2023-02-01T04:13:48;119.07;;;57.42;;
25824;SDS011;13658;44.534;18.694;2023-02-01T04:16:14;100.90;;;50.05;;
25824;SDS011;13658;44.534;18.694;2023-02-01T04:18:40;108.88;;;53.55;;
25824;SDS011;13658;44.534;18.694;2023-02-01T04:21:06;113.75;;;53.88;;
25824;SDS011;13658;44.534;18.694;2023-02-01T04:23:32;99.18;;;50.92;;
25824;SDS011;13658;44.534;18.694;2023-02-01T04:26:01;90.85;;;46.60;;
25824;SDS011;13658;44.534;18.694;2023-02-01T04:28:28;93.45;;;45.80;;
25824;SDS011;13658;44.534;18.694;2023-02-01T04:30:54;96.53;;;49.28;;
25824;SDS011;13658;44.534;18.694;2023-02-01T04:33:20;94.00;;;48.25;;
25824;SDS011;13658;44.534;18.694;2023-02-01T04:35:47;98.53;;;48.50;;
25824;SDS011;13658;44.534;18.694;2023-02-01T04:38:13;101.03;;;50.78;;
25824;SDS011;13658;44.534;18.694;2023-02-01T04:40:39;98.40;;;48.97;;
25824;SDS011;13658;44.534;18.694;2023-02-01T04:43:04;105.88;;;52.72;;
25824;SDS011;13658;44.534;18.694;2023-02-01T04:45:31;116.88;;;53.40;;
25824;SDS011;13658;44.534;18.694;2023-02-01T04:47:57;104.07;;;52.22;;
25824;SDS011;13658;44.534;18.694;2023-02-01T04:50:23;109.40;;;54.10;;
25824;SDS011;13658;44.534;18.694;2023-02-01T04:52:49;114.72;;;54.65;;
25824;SDS011;13658;44.534;18.694;2023-02-01T04:55:15;111.55;;;55.05;;
25824;SDS011;13658;44.534;18.694;2023-02-01T04:57:41;115.53;;;56.60;;
25824;SDS011;13658;44.534;18.694;2023-02-01T05:00:07;117.25;;;55.78;;
25824;SDS011;13658;44.534;18.694;2023-02-01T05:02:34;118.10;;;56.15;;
25824;SDS011;13658;44.534;18.694;2023-02-01T05:05:00;113.65;;;54.85;;
25824;SDS011;13658;44.534;18.694;2023-02-01T05:07:27;129.20;;;60.45;;
25824;SDS011;13658;44.534;18.694;2023-02-01T05:09:52;151.63;;;66.40;;
25824;SDS011;13658;44.534;18.694;2023-02-01T05:12:18;156.40;;;66.50;;
25824;SDS011;13658;44.534;18.694;2023-02-01T05:15:03;127.18;;;55.63;;
25824;SDS011;13658;44.534;18.694;2023-02-01T05:17:29;157.45;;;67.70;;
25824;SDS011;13658;44.534;18.694;2023-02-01T05:19:55;134.07;;;61.83;;
25824;SDS011;13658;44.534;18.694;2023-02-01T05:22:22;132.85;;;61.10;;
25824;SDS011;13658;44.534;18.694;2023-02-01T05:24:48;127.68;;;58.03;;
25824;SDS011;13658;44.534;18.694;2023-02-01T05:27:14;117.30;;;58.45;;
25824;SDS011;13658;44.534;18.694;2023-02-01T05:29:40;147.15;;;70.57;;
25824;SDS011;13658;44.534;18.694;2023-02-01T05:32:05;139.18;;;65.75;;
25824;SDS011;13658;44.534;18.694;2023-02-01T05:34:31;236.07;;;103.57;;
25824;SDS011;13658;44.534;18.694;2023-02-01T05:36:58;169.75;;;77.88;;
25824;SDS011;13658;44.534;18.694;2023-02-01T05:39:24;116.50;;;57.30;;
25824;SDS011;13658;44.534;18.694;2023-02-01T05:41:50;115.32;;;55.70;;
25824;SDS011;13658;44.534;18.694;2023-02-01T05:44:15;118.68;;;57.38;;
25824;SDS011;13658;44.534;18.694;2023-02-01T05:46:41;111.88;;;55.83;;
25824;SDS011;13658;44.534;18.694;2023-02-01T05:49:07;102.20;;;51.60;;
25824;SDS011;13658;44.534;18.694;2023-02-01T05:51:33;93.30;;;49.03;;
25824;SDS011;13658;44.534;18.694;2023-02-01T05:53:59;93.97;;;47.20;;
25824;SDS011;13658;44.534;18.694;2023-02-01T05:56:25;85.97;;;43.97;;
25824;SDS011;13658;44.534;18.694;2023-02-01T05:58:51;82.80;;;41.38;;
25824;SDS011;13658;44.534;18.694;2023-02-01T06:01:17;115.35;;;54.35;;
25824;SDS011;13658;44.534;18.694;2023-02-01T06:03:43;129.15;;;62.53;;
25824;SDS011;13658;44.534;18.694;2023-02-01T06:06:09;125.65;;;60.28;;
25824;SDS011;13658;44.534;18.694;2023-02-01T06:08:35;117.35;;;57.63;;
25824;SDS011;13658;44.534;18.694;2023-02-01T06:11:02;124.15;;;60.50;;
25824;SDS011;13658;44.534;18.694;2023-02-01T06:13:30;123.13;;;57.92;;
25824;SDS011;13658;44.534;18.694;2023-02-01T06:15:56;117.90;;;58.42;;
25824;SDS011;13658;44.534;18.694;2023-02-01T06:18:25;109.40;;;54.28;;
25824;SDS011;13658;44.534;18.694;2023-02-01T06:20:52;99.47;;;49.88;;
25824;SDS011;13658;44.534;18.694;2023-02-01T06:23:22;110.80;;;54.08;;
25824;SDS011;13658;44.534;18.694;2023-02-01T06:25:52;112.80;;;55.63;;
25824;SDS011;13658;44.534;18.694;2023-02-01T06:33:16;117.45;;;53.42;;
25824;SDS011;13658;44.534;18.694;2023-02-01T06:35:42;127.13;;;60.83;;
25824;SDS011;13658;44.534;18.694;2023-02-01T06:38:12;149.73;;;67.88;;
25824;SDS011;13658;44.534;18.694;2023-02-01T06:40:39;161.70;;;73.93;;
25824;SDS011;13658;44.534;18.694;2023-02-01T06:43:07;172.85;;;78.93;;
25824;SDS011;13658;44.534;18.694;2023-02-01T06:45:33;153.15;;;72.28;;
25824;SDS011;13658;44.534;18.694;2023-02-01T06:47:59;148.63;;;70.95;;
25824;SDS011;13658;44.534;18.694;2023-02-01T06:50:28;180.25;;;78.25;;
25824;SDS011;13658;44.534;18.694;2023-02-01T06:52:54;161.50;;;74.90;;
25824;SDS011;13658;44.534;18.694;2023-02-01T06:55:21;167.70;;;72.57;;
25824;SDS011;13658;44.534;18.694;2023-02-01T06:57:46;182.40;;;81.07;;
25824;SDS011;13658;44.534;18.694;2023-02-01T07:00:13;178.45;;;80.53;;
25824;SDS011;13658;44.534;18.694;2023-02-01T07:02:39;162.80;;;74.45;;
25824;SDS011;13658;44.534;18.694;2023-02-01T07:05:05;157.63;;;72.28;;
25824;SDS011;13658;44.534;18.694;2023-02-01T07:07:31;193.38;;;82.45;;
25824;SDS011;13658;44.534;18.694;2023-02-01T07:09:57;198.35;;;88.20;;
25824;SDS011;13658;44.534;18.694;2023-02-01T07:12:23;217.07;;;93.35;;
25824;SDS011;13658;44.534;18.694;2023-02-01T07:14:49;188.20;;;86.13;;
25824;SDS011;13658;44.534;18.694;2023-02-01T07:17:15;209.32;;;95.68;;
25824;SDS011;13658;44.534;18.694;2023-02-01T07:19:41;206.55;;;95.97;;
25824;SDS011;13658;44.534;18.694;2023-02-01T07:22:07;220.13;;;101.95;;
25824;SDS011;13658;44.534;18.694;2023-02-01T07:24:33;204.20;;;94.90;;
25824;SDS011;13658;44.534;18.694;2023-02-01T07:26:59;233.90;;;105.82;;
25824;SDS011;13658;44.534;18.694;2023-02-01T07:29:25;228.10;;;105.07;;
25824;SDS011;13658;44.534;18.694;2023-02-01T07:31:51;231.27;;;107.20;;
25824;SDS011;13658;44.534;18.694;2023-02-01T07:34:17;223.32;;;102.28;;
25824;SDS011;13658;44.534;18.694;2023-02-01T07:36:43;204.90;;;94.63;;
25824;SDS011;13658;44.534;18.694;2023-02-01T07:39:09;228.52;;;104.53;;
25824;SDS011;13658;44.534;18.694;2023-02-01T07:41:35;227.43;;;104.28;;
25824;SDS011;13658;44.534;18.694;2023-02-01T07:44:01;228.93;;;108.05;;
25824;SDS011;13658;44.534;18.694;2023-02-01T07:46:27;230.25;;;108.30;;
25824;SDS011;13658;44.534;18.694;2023-02-01T07:48:53;203.25;;;93.63;;
25824;SDS011;13658;44.534;18.694;2023-02-01T07:51:19;180.50;;;84.65;;
25824;SDS011;13658;44.534;18.694;2023-02-01T07:53:45;259.27;;;119.20;;
25824;SDS011;13658;44.534;18.694;2023-02-01T07:56:17;246.73;;;123.68;;
25824;SDS011;13658;44.534;18.694;2023-02-01T07:58:48;255.68;;;122.97;;
25824;SDS011;13658;44.534;18.694;2023-02-01T08:01:19;250.35;;;120.32;;
25824;SDS011;13658;44.534;18.694;2023-02-01T08:03:48;215.98;;;105.90;;
25824;SDS011;13658;44.534;18.694;2023-02-01T08:06:16;220.80;;;111.15;;
25824;SDS011;13658;44.534;18.694;2023-02-01T08:08:45;227.23;;;113.50;;
25824;SDS011;13658;44.534;18.694;2023-02-01T08:11:12;207.93;;;101.47;;
25824;SDS011;13658;44.534;18.694;2023-02-01T08:13:39;197.15;;;98.03;;
25824;SDS011;13658;44.534;18.694;2023-02-01T08:16:05;167.50;;;87.95;;
25824;SDS011;13658;44.534;18.694;2023-02-01T08:18:33;169.13;;;85.25;;
25824;SDS011;13658;44.534;18.694;2023-02-01T08:21:04;163.95;;;83.75;;
25824;SDS011;13658;44.534;18.694;2023-02-01T08:23:30;155.88;;;79.38;;
25824;SDS011;13658;44.534;18.694;2023-02-01T08:28:32;136.77;;;69.00;;
25824;SDS011;13658;44.534;18.694;2023-02-01T08:30:58;153.00;;;78.07;;
25824;SDS011;13658;44.534;18.694;2023-02-01T08:33:28;132.65;;;69.50;;
25824;SDS011;13658;44.534;18.694;2023-02-01T08:35:54;114.30;;;61.38;;
25824;SDS011;13658;44.534;18.694;2023-02-01T08:38:20;100.97;;;55.25;;
25824;SDS011;13658;44.534;18.694;2023-02-01T08:40:46;101.03;;;57.97;;
25824;SDS011;13658;44.534;18.694;2023-02-01T08:43:12;111.90;;;64.93;;
25824;SDS011;13658;44.534;18.694;2023-02-01T08:45:39;130.55;;;74.25;;
25824;SDS011;13658;44.534;18.694;2023-02-01T08:48:06;82.00;;;46.88;;
25824;SDS011;13658;44.534;18.694;2023-02-01T08:50:31;98.13;;;55.30;;
25824;SDS011;13658;44.534;18.694;2023-02-01T08:52:57;110.80;;;58.42;;
25824;SDS011;13658;44.534;18.694;2023-02-01T08:55:23;109.95;;;64.85;;
25824;SDS011;13658;44.534;18.694;2023-02-01T08:57:49;109.25;;;66.28;;
25824;SDS011;13658;44.534;18.694;2023-02-01T09:00:16;109.97;;;66.93;;
25824;SDS011;13658;44.534;18.694;2023-02-01T09:02:43;127.38;;;75.82;;
25824;SDS011;13658;44.534;18.694;2023-02-01T09:05:09;123.25;;;77.40;;
25824;SDS011;13658;44.534;18.694;2023-02-01T09:07:36;103.40;;;62.25;;
25824;SDS011;13658;44.534;18.694;2023-02-01T09:10:03;105.95;;;64.90;;
25824;SDS011;13658;44.534;18.694;2023-02-01T09:12:30;96.43;;;60.67;;
25824;SDS011;13658;44.534;18.694;2023-02-01T09:14:57;90.38;;;57.95;;
25824;SDS011;13658;44.534;18.694;2023-02-01T09:17:27;88.75;;;58.65;;
25824;SDS011;13658;44.534;18.694;2023-02-01T09:19:54;85.05;;;55.67;;
25824;SDS011;13658;44.534;18.694;2023-02-01T09:22:20;76.85;;;52.05;;
25824;SDS011;13658;44.534;18.694;2023-02-01T09:24:46;72.75;;;48.25;;
25824;SDS011;13658;44.534;18.694;2023-02-01T09:27:12;72.82;;;48.85;;
25824;SDS011;13658;44.534;18.694;2023-02-01T09:29:38;73.13;;;46.65;;
25824;SDS011;13658;44.534;18.694;2023-02-01T09:32:04;69.03;;;45.28;;
25824;SDS011;13658;44.534;18.694;2023-02-01T09:34:33;76.43;;;48.33;;
25824;SDS011;13658;44.534;18.694;2023-02-01T09:36:59;70.10;;;47.47;;
25824;SDS011;13658;44.534;18.694;2023-02-01T09:39:25;67.35;;;45.60;;
25824;SDS011;13658;44.534;18.694;2023-02-01T09:47:01;74.13;;;51.22;;
25824;SDS011;13658;44.534;18.694;2023-02-01T09:49:29;83.22;;;56.35;;
25824;SDS011;13658;44.534;18.694;2023-02-01T09:51:59;70.40;;;48.10;;
25824;SDS011;13658;44.534;18.694;2023-02-01T09:54:46;69.45;;;46.10;;
25824;SDS011;13658;44.534;18.694;2023-02-01T09:57:40;52.15;;;34.88;;
25824;SDS011;13658;44.534;18.694;2023-02-01T10:00:23;52.80;;;34.67;;
25824;SDS011;13658;44.534;18.694;2023-02-01T10:02:53;31.35;;;21.48;;
25824;SDS011;13658;44.534;18.694;2023-02-01T10:05:30;43.10;;;30.23;;
25824;SDS011;13658;44.534;18.694;2023-02-01T10:08:05;21.08;;;14.93;;
25824;SDS011;13658;44.534;18.694;2023-02-01T10:10:55;28.08;;;19.15;;
25824;SDS011;13658;44.534;18.694;2023-02-01T10:18:55;23.27;;;15.57;;
25824;SDS011;13658;44.534;18.694;2023-02-01T10:24:34;20.67;;;13.23;;
25824;SDS011;13658;44.534;18.694;2023-02-01T10:30:09;23.70;;;15.00;;
25824;SDS011;13658;44.534;18.694;2023-02-01T10:32:40;23.95;;;13.88;;
25824;SDS011;13658;44.534;18.694;2023-02-01T10:37:41;25.45;;;16.00;;
25824;SDS011;13658;44.534;18.694;2023-02-01T10:40:15;28.48;;;15.65;;
25824;SDS011;13658;44.534;18.694;2023-02-01T10:42:45;29.80;;;16.95;;
25824;SDS011;13658;44.534;18.694;2023-02-01T10:45:16;29.13;;;16.27;;
25824;SDS011;13658;44.534;18.694;2023-02-01T10:47:44;30.65;;;17.65;;
25824;SDS011;13658;44.534;18.694;2023-02-01T10:55:56;34.00;;;19.65;;
25824;SDS011;13658;44.534;18.694;2023-02-01T10:58:26;32.83;;;19.27;;
25824;SDS011;13658;44.534;18.694;2023-02-01T11:00:58;55.80;;;28.20;;
25824;SDS011;13658;44.534;18.694;2023-02-01T11:04:30;34.90;;;22.63;;
25824;SDS011;13658;44.534;18.694;2023-02-01T11:06:38;36.78;;;17.83;;
25824;SDS011;13658;44.534;18.694;2023-02-01T11:11:52;21.33;;;13.85;;
25824;SDS011;13658;44.534;18.694;2023-02-01T11:14:41;33.10;;;18.47;;
25824;SDS011;13658;44.534;18.694;2023-02-01T11:17:39;37.17;;;20.90;;
25824;SDS011;13658;44.534;18.694;2023-02-01T11:20:18;25.95;;;14.73;;
25824;SDS011;13658;44.534;18.694;2023-02-01T11:22:55;26.80;;;15.07;;
25824;SDS011;13658;44.534;18.694;2023-02-01T11:25:22;25.08;;;15.65;;
25824;SDS011;13658;44.534;18.694;2023-02-01T11:27:50;24.45;;;15.20;;
25824;SDS011;13658;44.534;18.694;2023-02-01T11:30:19;26.63;;;16.58;;
25824;SDS011;13658;44.534;18.694;2023-02-01T11:33:16;28.80;;;15.35;;
25824;SDS011;13658;44.534;18.694;2023-02-01T11:35:44;25.75;;;15.23;;
25824;SDS011;13658;44.534;18.694;2023-02-01T11:38:23;33.40;;;18.75;;
25824;SDS011;13658;44.534;18.694;2023-02-01T11:40:55;26.35;;;14.73;;
25824;SDS011;13658;44.534;18.694;2023-02-01T11:43:52;18.08;;;10.02;;
25824;SDS011;13658;44.534;18.694;2023-02-01T11:46:33;15.60;;;9.23;;
25824;SDS011;13658;44.534;18.694;2023-02-01T11:54:21;29.05;;;13.07;;
25824;SDS011;13658;44.534;18.694;2023-02-01T12:07:39;37.47;;;17.48;;
25824;SDS011;13658;44.534;18.694;2023-02-01T12:10:22;23.10;;;13.52;;
25824;SDS011;13658;44.534;18.694;2023-02-01T12:18:45;30.15;;;16.38;;
25824;SDS011;13658;44.534;18.694;2023-02-01T12:24:04;31.73;;;18.75;;
25824;SDS011;13658;44.534;18.694;2023-02-01T12:32:06;36.45;;;19.20;;
25824;SDS011;13658;44.534;18.694;2023-02-01T12:40:43;23.33;;;13.57;;
25824;SDS011;13658;44.534;18.694;2023-02-01T12:46:14;33.33;;;18.83;;
25824;SDS011;13658;44.534;18.694;2023-02-01T12:48:52;38.80;;;20.02;;
25824;SDS011;13658;44.534;18.694;2023-02-01T12:51:38;41.50;;;19.77;;
25824;SDS011;13658;44.534;18.694;2023-02-01T12:54:15;37.47;;;19.67;;
25824;SDS011;13658;44.534;18.694;2023-02-01T12:56:59;45.28;;;21.70;;
25824;SDS011;13658;44.534;18.694;2023-02-01T12:59:42;38.95;;;20.13;;
25824;SDS011;13658;44.534;18.694;2023-02-01T13:02:50;53.05;;;21.60;;
25824;SDS011;13658;44.534;18.694;2023-02-01T13:05:19;46.60;;;20.95;;
25824;SDS011;13658;44.534;18.694;2023-02-01T13:13:08;39.85;;;19.13;;
25824;SDS011;13658;44.534;18.694;2023-02-01T13:15:43;37.25;;;19.60;;
25824;SDS011;13658;44.534;18.694;2023-02-01T13:18:18;35.53;;;18.30;;
25824;SDS011;13658;44.534;18.694;2023-02-01T13:21:05;31.70;;;17.17;;
25824;SDS011;13658;44.534;18.694;2023-02-01T13:23:45;34.70;;;19.85;;
25824;SDS011;13658;44.534;18.694;2023-02-01T13:26:13;33.90;;;19.33;;
25824;SDS011;13658;44.534;18.694;2023-02-01T13:36:28;34.20;;;19.80;;
25824;SDS011;13658;44.534;18.694;2023-02-01T13:41:39;40.95;;;21.13;;
25824;SDS011;13658;44.534;18.694;2023-02-01T13:44:24;36.95;;;19.45;;
25824;SDS011;13658;44.534;18.694;2023-02-01T13:47:03;48.92;;;25.83;;
25824;SDS011;13658;44.534;18.694;2023-02-01T13:49:38;63.70;;;28.30;;
25824;SDS011;13658;44.534;18.694;2023-02-01T13:52:06;52.08;;;25.55;;
25824;SDS011;13658;44.534;18.694;2023-02-01T13:55:01;48.63;;;24.38;;
25824;SDS011;13658;44.534;18.694;2023-02-01T13:57:39;67.93;;;31.90;;
25824;SDS011;13658;44.534;18.694;2023-02-01T14:01:30;46.90;;;24.95;;
25824;SDS011;13658;44.534;18.694;2023-02-01T14:21:12;53.17;;;27.77;;
25824;SDS011;13658;44.534;18.694;2023-02-01T14:24:02;44.63;;;25.63;;
25824;SDS011;13658;44.534;18.694;2023-02-01T14:26:46;47.00;;;24.87;;
25824;SDS011;13658;44.534;18.694;2023-02-01T14:29:33;48.03;;;25.40;;
25824;SDS011;13658;44.534;18.694;2023-02-01T14:32:06;45.53;;;24.35;;
25824;SDS011;13658;44.534;18.694;2023-02-01T14:44:55;67.85;;;37.05;;
25824;SDS011;13658;44.534;18.694;2023-02-01T14:47:41;149.20;;;74.68;;
25824;SDS011;13658;44.534;18.694;2023-02-01T14:52:38;263.90;;;136.85;;
25824;SDS011;13658;44.534;18.694;2023-02-01T14:55:27;263.75;;;146.02;;
25824;SDS011;13658;44.534;18.694;2023-02-01T14:57:54;244.85;;;134.05;;
25824;SDS011;13658;44.534;18.694;2023-02-01T15:00:26;241.60;;;127.20;;
25824;SDS011;13658;44.534;18.694;2023-02-01T15:02:54;202.32;;;111.25;;
25824;SDS011;13658;44.534;18.694;2023-02-01T15:05:41;191.13;;;103.30;;
25824;SDS011;13658;44.534;18.694;2023-02-01T15:08:16;205.68;;;110.13;;
25824;SDS011;13658;44.534;18.694;2023-02-01T15:10:47;200.18;;;107.75;;
25824;SDS011;13658;44.534;18.694;2023-02-01T15:13:21;200.75;;;107.75;;
25824;SDS011;13658;44.534;18.694;2023-02-01T15:18:38;230.38;;;117.28;;
25824;SDS011;13658;44.534;18.694;2023-02-01T15:21:05;192.82;;;101.57;;
25824;SDS011;13658;44.534;18.694;2023-02-01T15:23:32;210.98;;;107.03;;
25824;SDS011;13658;44.534;18.694;2023-02-01T15:25:58;203.68;;;107.28;;
25824;SDS011;13658;44.534;18.694;2023-02-01T15:28:25;162.50;;;76.93;;
25824;SDS011;13658;44.534;18.694;2023-02-01T15:33:22;167.40;;;66.75;;
25824;SDS011;13658;44.534;18.694;2023-02-01T15:35:52;168.57;;;71.85;;
25824;SDS011;13658;44.534;18.694;2023-02-01T15:41:00;137.05;;;63.70;;
25824;SDS011;13658;44.534;18.694;2023-02-01T15:43:39;132.60;;;64.80;;
25824;SDS011;13658;44.534;18.694;2023-02-01T15:46:07;141.97;;;66.50;;
25824;SDS011;13658;44.534;18.694;2023-02-01T15:48:37;148.77;;;69.22;;
25824;SDS011;13658;44.534;18.694;2023-02-01T15:51:11;227.98;;;113.15;;
25824;SDS011;13658;44.534;18.694;2023-02-01T15:53:38;238.90;;;118.18;;
25824;SDS011;13658;44.534;18.694;2023-02-01T15:56:11;249.75;;;121.50;;
25824;SDS011;13658;44.534;18.694;2023-02-01T15:58:40;238.98;;;119.78;;
25824;SDS011;13658;44.534;18.694;2023-02-01T16:01:11;284.67;;;144.02;;
25824;SDS011;13658;44.534;18.694;2023-02-01T16:03:42;303.02;;;147.88;;
25824;SDS011;13658;44.534;18.694;2023-02-01T16:06:31;176.63;;;82.82;;
25824;SDS011;13658;44.534;18.694;2023-02-01T16:09:01;185.23;;;91.15;;
25824;SDS011;13658;44.534;18.694;2023-02-01T16:11:40;260.92;;;125.68;;
25824;SDS011;13658;44.534;18.694;2023-02-01T16:14:27;159.90;;;73.93;;
25824;SDS011;13658;44.534;18.694;2023-02-01T16:16:54;151.10;;;73.18;;
25824;SDS011;13658;44.534;18.694;2023-02-01T16:19:22;154.82;;;72.78;;
25824;SDS011;13658;44.534;18.694;2023-02-01T16:21:53;156.23;;;75.63;;
25824;SDS011;13658;44.534;18.694;2023-02-01T16:24:20;164.77;;;80.57;;
25824;SDS011;13658;44.534;18.694;2023-02-01T16:26:48;165.98;;;76.88;;
25824;SDS011;13658;44.534;18.694;2023-02-01T16:29:14;166.10;;;75.63;;
25824;SDS011;13658;44.534;18.694;2023-02-01T16:31:41;160.55;;;75.30;;
25824;SDS011;13658;44.534;18.694;2023-02-01T16:34:13;157.55;;;72.75;;
25824;SDS011;13658;44.534;18.694;2023-02-01T16:36:42;125.32;;;56.83;;
25824;SDS011;13658;44.534;18.694;2023-02-01T16:39:11;169.02;;;77.75;;
25824;SDS011;13658;44.534;18.694;2023-02-01T16:41:38;169.50;;;79.63;;
25824;SDS011;13658;44.534;18.694;2023-02-01T16:44:04;161.90;;;78.97;;
25824;SDS011;13658;44.534;18.694;2023-02-01T16:46:32;166.38;;;77.13;;
25824;SDS011;13658;44.534;18.694;2023-02-01T16:49:00;170.75;;;80.68;;
25824;SDS011;13658;44.534;18.694;2023-02-01T16:51:28;161.80;;;78.82;;
25824;SDS011;13658;44.534;18.694;2023-02-01T16:53:58;160.05;;;76.05;;
25824;SDS011;13658;44.534;18.694;2023-02-01T16:56:29;160.35;;;77.15;;
25824;SDS011;13658;44.534;18.694;2023-02-01T16:58:57;155.05;;;78.68;;
25824;SDS011;13658;44.534;18.694;2023-02-01T17:01:23;154.20;;;77.70;;
25824;SDS011;13658;44.534;18.694;2023-02-01T17:03:49;155.70;;;76.20;;
25824;SDS011;13658;44.534;18.694;2023-02-01T17:06:20;160.63;;;78.72;;